Time;durP1;ratioP1;P1;durP2;ratioP2;P2;SDS_P1;SDS_P2;PMS_P1;PMS_P2;Temp;Humidity;BMP_temperature;BMP_pressure;BME280_temperature;BME280_humidity;BME280_pressure;Samples;Min_cycle;Max_cycle;Signal;HPM_P1;HPM_P2
2022/05/26 13:24:33;;;;;;;5.80;1.80;;;;;;;25.91;33.91;100592.02;103752;1306;871074;-90
2022/05/26 13:27:08;;;;;;;3.80;1.60;;;;;;;25.91;33.91;100592.69;104198;1302;66394;-90
2022/05/26 13:35:34;;;;;;;5.20;1.80;;;;;;;25.85;34.50;100590.33;103710;1302;80837;-90
2022/05/26 13:41:30;;;;;;;5.10;2.20;;;;;;;25.85;34.54;100594.09;103739;1302;68483;-90
2022/05/26 13:49:57;;;;;;;3.90;1.90;;;;;;;25.74;34.72;100583.28;103365;1305;83799;-90
2022/05/26 13:52:26;;;;;;;2.70;2.00;;;;;;;25.67;34.89;100583.86;102981;1306;72833;-90
2022/05/26 13:57:40;;;;;;;4.00;1.60;;;;;;;25.71;35.10;100587.88;103286;1303;68473;-90
2022/05/26 14:00:29;;;;;;;4.30;1.70;;;;;;;25.67;35.02;100592.31;103032;1304;73365;-89
2022/05/26 14:03:01;;;;;;;6.50;2.20;;;;;;;25.70;35.19;100586.89;103205;1303;82898;-89
2022/05/26 14:05:29;;;;;;;4.40;2.20;;;;;;;25.73;35.36;100579.98;102917;1307;72868;-89
2022/05/26 14:07:58;;;;;;;5.00;2.20;;;;;;;25.76;35.36;100578.55;102998;1316;66156;-89
2022/05/26 14:10:31;;;;;;;4.20;1.70;;;;;;;25.74;35.37;100578.67;102812;1316;68346;-89
2022/05/26 14:13:32;;;;;;;9.60;1.90;;;;;;;25.73;35.37;100576.39;103289;1302;72687;-88
2022/05/26 14:18:56;;;;;;;3.90;1.90;;;;;;;25.79;35.65;100574.05;103205;1317;73074;-89
2022/05/26 14:21:30;;;;;;;6.40;1.70;;;;;;;25.78;35.55;100571.73;103538;1317;68293;-88
2022/05/26 14:24:01;;;;;;;3.80;2.10;;;;;;;25.74;35.39;100564.92;102757;1310;68279;-89
2022/05/26 14:26:34;;;;;;;5.40;2.30;;;;;;;25.77;35.62;100565.53;102745;1310;73140;-89
2022/05/26 14:29:06;;;;;;;4.00;2.10;;;;;;;25.82;35.59;100563.86;102896;1307;81910;-89
2022/05/26 14:34:25;;;;;;;4.80;2.90;;;;;;;25.79;35.42;100563.70;95335;1306;68422;-90
2022/05/26 14:36:59;;;;;;;4.70;3.20;;;;;;;25.76;35.68;100566.04;103333;1308;68224;-87
2022/05/26 14:39:25;;;;;;;4.60;2.80;;;;;;;25.72;35.57;100564.39;102825;1320;73415;-90
2022/05/26 14:41:57;;;;;;;5.60;2.90;;;;;;;25.66;35.70;100559.55;103373;1309;67277;-90
2022/05/26 14:44:36;;;;;;;5.40;2.60;;;;;;;25.65;35.62;100556.63;103191;1310;73079;-89
2022/05/26 14:47:09;;;;;;;5.00;3.00;;;;;;;25.70;35.82;100557.59;103577;1307;68260;-91
2022/05/26 14:49:34;;;;;;;6.70;2.90;;;;;;;25.68;35.81;100560.90;103216;1310;68384;-89
2022/05/26 15:00:47;;;;;;;4.00;2.40;;;;;;;25.62;35.94;100562.73;103286;1317;67104;-89
2022/05/26 15:10:02;;;;;;;4.60;2.90;;;;;;;25.63;35.58;100559.50;104132;1307;83562;31
2022/05/26 15:12:46;;;;;;;7.80;3.10;;;;;;;25.65;35.70;100556.28;103504;1318;73275;-90
2022/05/26 15:15:16;;;;;;;4.20;3.00;;;;;;;25.65;35.86;100562.40;102777;1319;68195;-89
2022/05/26 15:21:22;;;;;;;;;;;;;;;;;;;;;
2022/05/26 15:24:01;;;;;;;4.10;3.20;;;;;;;25.74;35.75;100565.74;103378;1306;83818;-89
2022/05/26 15:26:28;;;;;;;4.90;3.00;;;;;;;25.69;35.70;100562.30;102951;1307;73937;-89
2022/05/26 15:31:47;;;;;;;5.80;2.90;;;;;;;25.71;35.93;100563.28;103132;1307;68113;-90
2022/05/26 15:34:13;;;;;;;5.60;3.30;;;;;;;25.71;35.71;100563.14;102925;1309;74671;-91
2022/05/26 15:37:02;;;;;;;5.00;3.10;;;;;;;25.67;36.02;100565.52;103367;1307;80346;-89
2022/05/26 15:40:05;;;;;;;5.10;3.00;;;;;;;25.60;36.11;100568.83;102780;1317;75135;-89
2022/05/26 15:42:41;;;;;;;7.00;3.20;;;;;;;25.60;36.21;100567.20;102528;1307;68256;31
2022/05/26 15:48:08;;;;;;;6.00;3.20;;;;;;;25.64;36.05;100574.22;102874;1306;74355;-89
2022/05/26 15:53:33;;;;;;;14.00;10.50;;;;;;;25.54;36.21;100577.38;103220;1306;72973;-90
2022/05/26 15:56:15;;;;;;;19.00;12.40;;;;;;;25.57;36.30;100579.31;102563;1310;68410;-90
2022/05/26 15:59:01;;;;;;;16.70;11.80;;;;;;;25.58;36.29;100583.77;102996;1307;68292;-89
2022/05/26 16:01:43;;;;;;;15.90;11.80;;;;;;;25.58;36.33;100583.91;102834;1310;72585;-90
2022/05/26 16:07:02;;;;;;;19.90;14.20;;;;;;;25.50;36.58;100587.60;103362;1306;73745;-89
2022/05/26 16:12:33;;;;;;;15.90;11.90;;;;;;;25.57;36.38;100587.95;103356;1316;68345;-91
2022/05/26 16:26:52;;;;;;;13.90;10.40;;;;;;;25.54;36.65;100612.36;103600;1310;68313;-90
2022/05/26 16:32:13;;;;;;;17.10;9.90;;;;;;;25.52;36.65;100616.41;103219;1310;83054;-90
2022/05/26 16:38:01;;;;;;;;;;;;;;;25.43;36.75;100628.14;103135;1310;66988;-91
2022/05/26 16:40:44;;;;;;;10.40;7.70;;;;;;;25.40;36.90;100630.34;103314;1309;65884;-90
2022/05/26 16:43:26;;;;;;;11.20;8.20;;;;;;;25.41;36.95;100631.11;102816;1313;73352;-90
2022/05/26 16:48:57;;;;;;;13.70;8.30;;;;;;;25.51;36.84;100640.09;103577;1310;73937;-91
2022/05/26 16:51:32;;;;;;;8.80;6.90;;;;;;;25.50;36.84;100639.42;103249;1310;68375;-88
2022/05/26 17:00:21;;;;;;;8.30;6.30;;;;;;;25.54;37.01;100648.42;102483;1322;82748;-89
2022/05/26 17:05:37;;;;;;;8.70;7.00;;;;;;;25.48;36.98;100650.95;102397;1313;68298;-90
2022/05/26 17:11:09;;;;;;;7.40;6.40;;;;;;;25.51;37.06;100663.92;102894;1310;74209;-90
2022/05/26 17:22:40;;;;;;;8.50;6.30;;;;;;;25.46;37.33;100679.99;102449;1313;65846;-89
2022/05/26 17:25:13;;;;;;;8.30;5.80;;;;;;;25.48;37.39;100686.05;102548;1312;74130;-90
2022/05/26 17:27:43;;;;;;;7.40;6.20;;;;;;;25.49;37.39;100689.54;102790;1310;68500;-91
2022/05/26 17:30:18;;;;;;;7.10;5.90;;;;;;;25.45;37.37;100687.69;102505;1310;73893;31
2022/05/26 17:32:44;;;;;;;7.40;5.60;;;;;;;25.41;37.54;100689.20;102131;1325;68379;-90
2022/05/26 17:38:03;;;;;;;9.10;6.20;;;;;;;25.47;37.72;100692.90;103138;1310;75109;-89
2022/05/26 17:40:40;;;;;;;9.80;6.00;;;;;;;25.48;37.66;100696.23;102863;1310;82011;-89
2022/05/26 17:43:10;;;;;;;9.00;5.50;;;;;;;25.43;37.59;100696.70;102643;1313;73438;-90
2022/05/26 17:45:46;;;;;;;7.30;5.10;;;;;;;25.39;37.74;100696.23;102703;1313;68325;-90
2022/05/26 17:48:14;;;;;;;6.40;5.30;;;;;;;25.41;37.99;100696.63;102266;1313;68451;-89
2022/05/26 17:50:46;;;;;;;6.90;5.00;;;;;;;25.41;37.93;100701.88;102074;1320;76714;-90
2022/05/26 17:56:06;;;;;;;6.40;5.40;;;;;;;25.39;37.98;100705.77;103010;1309;73828;-90
2022/05/26 18:01:35;;;;;;;6.80;5.10;;;;;;;25.41;38.12;100711.95;102862;1309;68326;-90
2022/05/26 18:04:18;;;;;;;8.20;5.10;;;;;;;25.43;38.35;100713.55;102798;1310;74414;-90
2022/05/26 18:09:46;;;;;;;8.20;4.60;;;;;;;25.34;38.31;100725.15;102979;1309;73921;-91
2022/05/26 18:12:21;;;;;;;8.10;4.70;;;;;;;25.35;38.25;100729.67;102617;1309;68320;-90
2022/05/26 18:23:17;;;;;;;5.90;4.70;;;;;;;25.34;38.56;100730.40;102909;1310;72905;-89
2022/05/26 18:26:08;;;;;;;5.80;5.00;;;;;;;25.35;38.43;100739.04;102866;1310;68479;-90
2022/05/26 18:28:35;;;;;;;9.10;4.60;;;;;;;25.39;38.46;100743.38;102377;1313;68281;-89
2022/05/26 18:31:25;;;;;;;7.00;5.40;;;;;;;25.40;38.41;100745.36;101715;1313;72640;-90
2022/05/26 18:40:19;;;;;;;12.20;9.30;;;;;;;25.40;38.45;100755.20;101479;1310;67217;-90
2022/05/26 18:42:48;;;;;;;11.10;9.00;;;;;;;25.41;38.50;100753.42;103219;1313;66040;-91
2022/05/26 18:45:34;;;;;;;11.50;9.10;;;;;;;25.42;38.54;100750.55;102981;1309;74096;-90
2022/05/26 18:48:37;;;;;;;9.90;8.20;;;;;;;25.36;38.56;100755.14;103090;1308;83277;-90
2022/05/26 18:51:32;;;;;;;9.70;7.20;;;;;;;25.36;38.62;100757.98;102621;1309;71615;-91
2022/05/26 18:57:27;;;;;;;10.00;7.50;;;;;;;25.40;38.57;100763.60;102218;1313;68486;-90
2022/05/26 19:00:16;;;;;;;8.60;7.30;;;;;;;25.35;38.60;100767.26;102277;1311;73051;-89
2022/05/26 19:03:10;;;;;;;8.00;7.10;;;;;;;25.34;38.64;100769.19;102840;1310;83250;-89
2022/05/26 19:06:03;;;;;;;9.60;7.30;;;;;;;25.38;38.81;100774.04;102532;1310;72853;31
2022/05/26 19:13:59;;;;;;;10.80;6.90;;;;;;;25.43;38.80;100776.14;102724;1310;73971;-90
2022/05/26 19:22:20;;;;;;;9.00;7.00;;;;;;;25.40;38.57;100784.83;102389;1319;68711;-90
2022/05/26 19:27:53;;;;;;;7.80;6.40;;;;;;;25.37;38.76;100790.83;102763;1310;74985;-89
2022/05/26 19:30:29;;;;;;;10.90;6.60;;;;;;;25.35;38.86;100796.57;102598;1311;83520;-90
2022/05/26 19:32:58;;;;;;;8.20;6.70;;;;;;;25.30;38.86;100800.95;101311;1319;73104;-88
2022/05/26 19:35:23;;;;;;;15.00;6.90;;;;;;;25.28;38.88;100804.13;101198;1320;68455;-87
2022/05/26 19:37:49;;;;;;;8.80;6.60;;;;;;;25.27;38.97;100807.19;101669;1320;68423;-87
2022/05/26 19:40:16;;;;;;;8.30;6.40;;;;;;;25.26;38.87;100809.00;101515;1320;68478;-87
2022/05/26 19:42:41;;;;;;;7.90;6.50;;;;;;;25.29;38.97;100810.82;101440;1320;68548;-87
2022/05/26 19:45:08;;;;;;;7.40;6.60;;;;;;;25.31;38.98;100812.43;101294;1320;68438;-88
2022/05/26 19:47:36;;;;;;;7.50;6.20;;;;;;;25.36;38.95;100813.47;101439;1320;69487;-93
2022/05/26 19:50:03;;;;;;;7.40;6.50;;;;;;;25.34;38.96;100812.66;101428;1320;74619;-88
2022/05/26 19:52:29;;;;;;;9.10;7.00;;;;;;;25.29;38.96;100812.87;101465;1320;82895;-88
2022/05/26 19:54:55;;;;;;;10.90;6.80;;;;;;;25.31;38.97;100815.06;101231;1320;68471;-88
2022/05/26 19:57:20;;;;;;;7.40;5.90;;;;;;;25.32;39.07;100816.33;101712;1320;68443;-87
2022/05/26 19:59:46;;;;;;;7.40;6.70;;;;;;;25.33;38.99;100821.01;101558;1320;68477;-86
2022/05/26 20:02:11;;;;;;;7.50;6.30;;;;;;;25.31;39.03;100822.58;101491;1320;68461;-87
2022/05/26 20:04:37;;;;;;;8.50;6.10;;;;;;;25.27;38.99;100826.34;101770;1320;72911;-87
2022/05/26 20:07:03;;;;;;;7.80;5.90;;;;;;;25.26;39.20;100828.63;101564;1320;68578;-87
2022/05/26 20:09:29;;;;;;;7.90;5.70;;;;;;;25.30;39.15;100828.11;101588;1320;68448;-86
2022/05/26 20:11:55;;;;;;;7.00;5.60;;;;;;;25.32;39.09;100833.84;101769;1320;68444;-88
2022/05/26 20:14:21;;;;;;;7.70;6.00;;;;;;;25.32;39.12;100839.36;101401;1320;68445;-89
2022/05/26 20:16:47;;;;;;;6.20;5.50;;;;;;;25.30;39.20;100843.92;101648;1320;68562;-86
2022/05/26 20:19:12;;;;;;;7.50;5.50;;;;;;;25.30;39.32;100842.52;101429;1322;68454;-86
2022/05/26 20:21:38;;;;;;;6.00;5.20;;;;;;;25.32;39.28;100848.52;101591;1320;68382;-86
2022/05/26 20:24:06;;;;;;;7.00;5.80;;;;;;;25.34;39.38;100847.02;101688;1321;68482;-87
2022/05/26 20:26:34;;;;;;;6.90;5.50;;;;;;;25.33;39.36;100844.86;101399;1320;68443;-92
2022/05/26 20:31:56;;;;;;;5.70;5.20;;;;;;;25.29;39.28;100855.45;101737;1309;68363;-86
2022/05/26 20:34:22;;;;;;;7.80;5.50;;;;;;;25.32;39.44;100852.80;101785;1320;68435;-88
2022/05/26 20:36:49;;;;;;;6.20;5.40;;;;;;;25.33;39.37;100850.00;103858;1320;68366;-88
2022/05/26 20:39:18;;;;;;;5.60;4.80;;;;;;;25.33;39.23;100855.93;102231;1320;68448;-88
2022/05/26 20:41:44;;;;;;;6.10;4.80;;;;;;;25.30;39.36;100857.91;101793;1320;68428;-88
2022/05/26 20:44:09;;;;;;;6.90;5.30;;;;;;;25.29;39.54;100864.30;101408;1323;68528;-87
2022/05/26 20:46:35;;;;;;;5.50;4.90;;;;;;;25.31;39.58;100860.58;101657;1320;68420;-88
2022/05/26 20:49:00;;;;;;;6.00;5.40;;;;;;;25.33;39.51;100863.09;101521;1321;68435;-87
2022/05/26 20:51:26;;;;;;;6.30;4.90;;;;;;;25.35;39.50;100865.23;101190;1320;68500;-87
2022/05/26 20:53:51;;;;;;;7.20;5.10;;;;;;;25.32;39.51;100867.89;101706;1320;68882;-86
2022/05/26 20:58:57;;;;;;;5.60;4.90;;;;;;;25.30;39.59;100873.23;101567;1320;81909;-87
2022/05/26 21:01:22;;;;;;;5.60;4.50;;;;;;;25.31;39.65;100877.98;101626;1321;68467;-87
2022/05/26 21:03:48;;;;;;;5.60;5.00;;;;;;;25.34;39.64;100878.95;101224;1323;68488;-88
2022/05/26 21:06:14;;;;;;;6.30;5.30;;;;;;;25.32;39.74;100880.92;101538;1323;68483;-87
2022/05/26 21:08:39;;;;;;;5.40;4.90;;;;;;;25.29;39.64;100880.84;101332;1323;68410;-87
2022/05/26 21:11:05;;;;;;;5.80;4.70;;;;;;;25.30;39.76;100888.15;101274;1323;72890;-86
2022/05/26 21:13:31;;;;;;;7.00;4.60;;;;;;;25.33;39.76;100883.73;101288;1323;68874;-87
2022/05/26 21:15:57;;;;;;;5.10;4.60;;;;;;;25.34;39.81;100883.53;101539;1324;68465;-89
2022/05/26 21:18:26;;;;;;;6.40;5.00;;;;;;;25.33;39.85;100882.05;101599;1322;68419;-89
2022/05/26 21:20:52;;;;;;;6.00;4.20;;;;;;;25.30;39.72;100883.61;101601;1322;81843;-88
2022/05/26 21:23:24;;;;;;;5.60;4.40;;;;;;;25.30;39.87;100890.23;101289;1321;68415;-90
2022/05/26 21:25:49;;;;;;;5.10;4.50;;;;;;;25.31;39.90;100889.84;101530;1322;68314;-88
2022/05/26 21:28:35;;;;;;;5.10;4.60;;;;;;;25.33;39.88;100889.52;101303;1323;68457;-88
2022/05/26 21:31:07;;;;;;;6.60;4.90;;;;;;;25.35;39.85;100887.33;101504;1322;74423;-89
2022/05/26 21:33:33;;;;;;;5.40;4.60;;;;;;;25.34;39.90;100890.11;101617;1323;82907;-88
2022/05/26 21:35:59;;;;;;;5.40;4.30;;;;;;;25.30;39.92;100898.61;101605;1322;68554;-88
2022/05/26 21:38:26;;;;;;;5.00;4.30;;;;;;;25.28;40.01;100896.98;101477;1322;68449;-89
2022/05/26 21:40:54;;;;;;;6.50;4.50;;;;;;;25.31;40.01;100899.27;101191;1323;68483;-86
2022/05/26 21:43:20;;;;;;;4.80;4.20;;;;;;;25.31;40.02;100896.80;101492;1322;74201;-87
2022/05/26 21:45:46;;;;;;;5.40;4.00;;;;;;;25.33;39.96;100897.96;101274;1323;68759;-87
2022/05/26 21:48:11;;;;;;;6.90;4.00;;;;;;;25.29;40.10;100902.23;101206;1323;68372;-87
2022/05/26 21:50:40;;;;;;;5.60;4.10;;;;;;;25.27;40.12;100906.84;101698;1323;68381;-87
2022/05/26 21:53:28;;;;;;;5.30;4.10;;;;;;;25.27;40.21;100907.50;101335;1322;68423;-93
2022/05/26 21:55:53;;;;;;;4.30;3.90;;;;;;;25.31;40.25;100907.67;101994;1322;74025;-87
2022/05/26 21:58:19;;;;;;;4.80;4.10;;;;;;;25.30;40.29;100906.48;101738;1322;68502;-87
2022/05/26 22:01:14;;;;;;;6.00;4.20;;;;;;;25.28;40.26;100907.95;101732;1320;68960;-87
2022/05/26 22:03:45;;;;;;;4.70;4.00;;;;;;;25.26;40.40;100906.59;101640;1313;68446;-89
2022/05/26 22:11:40;;;;;;;6.30;4.40;;;;;;;25.32;40.35;100905.59;101844;1320;81068;-88
2022/05/26 22:14:11;;;;;;;5.60;4.30;;;;;;;25.31;40.37;100906.31;101656;1320;68976;-92
2022/05/26 22:16:48;;;;;;;6.00;3.90;;;;;;;25.31;40.44;100904.02;101526;1320;68430;-87
2022/05/26 22:19:16;;;;;;;4.70;4.20;;;;;;;25.29;40.20;100906.71;101730;1319;68321;-88
2022/05/26 22:21:44;;;;;;;6.00;4.30;;;;;;;25.29;40.45;100908.71;101544;1320;74753;-88
2022/05/26 22:24:14;;;;;;;4.70;4.20;;;;;;;25.29;40.61;100906.41;101551;1320;81896;-87
2022/05/26 22:26:41;;;;;;;6.00;4.00;;;;;;;25.27;40.56;100903.27;101343;1321;72831;-87
2022/05/26 22:29:08;;;;;;;4.40;4.00;;;;;;;25.26;40.34;100910.09;101546;1320;68365;-92
2022/05/26 22:31:33;;;;;;;4.90;4.00;;;;;;;25.24;40.61;100910.63;101402;1320;69559;-87
2022/05/26 22:34:01;;;;;;;4.50;4.00;;;;;;;25.18;40.67;100910.23;101612;1320;68371;-87
2022/05/26 22:36:26;;;;;;;5.30;3.80;;;;;;;25.17;40.66;100913.38;101385;1320;68441;-87
2022/05/26 22:38:52;;;;;;;4.80;4.30;;;;;;;25.16;40.79;100915.34;102546;1320;68296;-88
2022/05/26 22:41:21;;;;;;;4.50;3.70;;;;;;;25.16;41.13;100914.48;104377;1320;65787;-88
2022/05/26 22:46:30;;;;;;;4.30;3.90;;;;;;;25.24;40.96;100913.63;102167;1307;74422;-88
2022/05/26 22:48:56;;;;;;;5.30;3.90;;;;;;;25.25;40.98;100912.94;104343;1320;81744;-88
2022/05/26 22:51:22;;;;;;;5.00;4.20;;;;;;;25.25;40.98;100914.70;101889;1320;68353;-88
2022/05/26 22:53:48;;;;;;;5.80;3.90;;;;;;;25.24;41.01;100915.58;101829;1319;68852;-87
2022/05/26 22:56:13;;;;;;;6.10;3.80;;;;;;;25.28;40.95;100916.27;101732;1319;68372;-88
2022/05/26 22:58:46;;;;;;;4.70;3.70;;;;;;;25.31;41.13;100918.73;101319;1319;68496;-88
2022/05/26 23:01:29;;;;;;;4.50;3.70;;;;;;;25.31;41.08;100921.16;101281;1322;80798;-87
2022/05/26 23:03:54;;;;;;;5.30;4.00;;;;;;;25.28;41.12;100922.19;101226;1322;68474;-87
2022/05/26 23:06:20;;;;;;;4.50;3.70;;;;;;;25.26;41.11;100922.36;101519;1323;68902;-87
2022/05/26 23:08:46;;;;;;;4.20;3.80;;;;;;;25.25;41.19;100919.08;101455;1323;68442;-88
2022/05/26 23:11:12;;;;;;;4.80;4.10;;;;;;;25.28;41.19;100923.09;101300;1322;68559;-88
2022/05/26 23:13:37;;;;;;;4.60;3.90;;;;;;;25.30;41.34;100918.90;101172;1323;73819;-88
2022/05/26 23:16:05;;;;;;;4.20;3.80;;;;;;;25.28;41.26;100918.06;101275;1323;68533;-87
2022/05/26 23:18:30;;;;;;;5.40;3.80;;;;;;;25.25;41.28;100919.54;101278;1322;68284;-87
2022/05/26 23:20:56;;;;;;;5.50;4.00;;;;;;;25.25;41.40;100917.17;101310;1322;68528;-87
2022/05/26 23:23:21;;;;;;;4.20;3.60;;;;;;;25.26;41.44;100919.77;101471;1323;68483;-87
2022/05/26 23:28:20;;;;;;;5.20;3.80;;;;;;;25.28;41.48;100915.83;101782;1309;68681;-86
2022/05/26 23:30:46;;;;;;;4.90;3.80;;;;;;;25.25;41.75;100914.02;101669;1320;68466;-86
2022/05/26 23:33:12;;;;;;;4.00;3.50;;;;;;;25.23;41.57;100915.54;101833;1320;68319;-87
2022/05/26 23:35:38;;;;;;;5.30;3.80;;;;;;;25.25;41.39;100917.37;101781;1320;68240;-86
2022/05/26 23:38:04;;;;;;;6.10;3.60;;;;;;;25.27;41.76;100923.98;101515;1320;68457;-87
2022/05/26 23:43:21;;;;;;;4.90;3.70;;;;;;;25.28;41.65;100927.73;101401;1320;68854;-87
2022/05/26 23:43:25;;;;;;;4.10;3.70;;;;;;;25.24;41.64;100924.45;101121;1323;74984;-87
2022/05/26 23:45:51;;;;;;;4.50;3.80;;;;;;;25.22;41.84;100921.83;101370;1322;81984;-87
2022/05/26 23:48:18;;;;;;;5.10;3.80;;;;;;;25.23;41.80;100922.54;101190;1322;74415;-87
2022/05/26 23:50:45;;;;;;;8.30;4.00;;;;;;;25.25;41.82;100922.52;101075;1323;68487;-87
2022/05/26 23:53:13;;;;;;;4.10;3.70;;;;;;;25.25;41.81;100920.36;101353;1323;68451;-87
2022/05/26 23:58:23;;;;;;;4.90;4.10;;;;;;;25.18;41.99;100924.23;101077;1323;81088;-87
